Time;durP1;ratioP1;P1;durP2;ratioP2;P2;SDS_P1;SDS_P2;PMS_P1;PMS_P2;Temp;Humidity;BMP_temperature;BMP_pressure;BME280_temperature;BME280_humidity;BME280_pressure;Samples;Min_cycle;Max_cycle;Signal;HPM_P1;HPM_P2
2023/03/01 00:01:04;;;;;;;15.70;8.90;;;;;;;;;;5073505;28;20596;-65
2023/03/01 00:03:31;;;;;;;18.02;9.50;;;;;;;;;;5088262;28;20036;-65
2023/03/01 00:05:57;;;;;;;16.02;10.13;;;;;;;;;;5078277;28;20027;-65
2023/03/01 00:08:24;;;;;;;17.42;10.35;;;;;;;;;;5083236;28;20044;-65
2023/03/01 00:11:22;;;;;;;16.38;10.07;;;;;;;;;;5075171;28;20036;-64
2023/03/01 00:13:51;;;;;;;19.73;10.60;;;;;;;;;;5077928;28;20044;-65
2023/03/01 00:16:20;;;;;;;18.13;10.57;;;;;;;;;;5086421;28;20032;-65
2023/03/01 00:19:18;;;;;;;17.00;9.60;;;;;;;;;;5080142;28;20067;-65
2023/03/01 00:21:44;;;;;;;21.20;10.75;;;;;;;;;;5086060;28;20097;-65
2023/03/01 00:24:10;;;;;;;17.50;10.68;;;;;;;;;;5097102;28;20027;-66
2023/03/01 00:26:36;;;;;;;12.65;8.02;;;;;;;;;;5084412;28;20048;-65
2023/03/01 00:29:02;;;;;;;20.65;10.90;;;;;;;;;;5098178;28;20645;-65
2023/03/01 00:31:30;;;;;;;20.23;10.05;;;;;;;;;;5062348;28;20151;-65
2023/03/01 00:33:58;;;;;;;18.15;10.82;;;;;;;;;;5061546;28;20090;-65
2023/03/01 00:36:31;;;;;;;19.75;11.05;;;;;;;;;;5084016;28;20028;-65
2023/03/01 00:38:58;;;;;;;16.98;10.73;;;;;;;;;;5086445;28;20323;-65
2023/03/01 00:41:23;;;;;;;17.42;10.30;;;;;;;;;;5051930;28;20483;-65
2023/03/01 00:44:09;;;;;;;21.98;11.90;;;;;;;;;;5082835;28;20036;-65
2023/03/01 00:46:53;;;;;;;18.85;10.75;;;;;;;;;;5083748;28;20066;-65
2023/03/01 00:49:37;;;;;;;15.50;9.85;;;;;;;;;;5086677;28;20047;-65
2023/03/01 00:52:22;;;;;;;18.15;10.00;;;;;;;;;;5083161;28;20032;-65
2023/03/01 00:55:07;;;;;;;18.73;10.82;;;;;;;;;;5083744;28;20404;-65
2023/03/01 00:57:33;;;;;;;16.77;10.82;;;;;;;;;;5080218;28;20032;-64
2023/03/01 00:59:59;;;;;;;18.73;10.82;;;;;;;;;;5090242;28;20043;-65
2023/03/01 01:02:25;;;;;;;18.02;10.65;;;;;;;;;;5035803;28;20400;-65
2023/03/01 01:04:51;;;;;;;14.95;9.93;;;;;;;;;;5065011;28;20051;-65
2023/03/01 01:07:17;;;;;;;14.00;8.98;;;;;;;;;;5077090;28;20043;-65
2023/03/01 01:09:43;;;;;;;17.83;10.52;;;;;;;;;;5079981;28;20039;-65
2023/03/01 01:12:08;;;;;;;19.70;11.18;;;;;;;;;;5081547;28;20041;-65
2023/03/01 01:14:34;;;;;;;21.98;10.63;;;;;;;;;;5072894;28;20037;-65
2023/03/01 01:17:00;;;;;;;18.15;11.00;;;;;;;;;;5086594;28;20539;-66
2023/03/01 01:19:26;;;;;;;13.43;7.82;;;;;;;;;;5065516;28;20064;-65
2023/03/01 01:21:52;;;;;;;20.67;10.73;;;;;;;;;;5084104;28;20059;-65
2023/03/01 01:24:18;;;;;;;18.13;10.10;;;;;;;;;;5081973;28;20036;-65
2023/03/01 01:26:44;;;;;;;17.77;10.60;;;;;;;;;;5077691;28;20528;-65
2023/03/01 01:29:10;;;;;;;19.80;10.55;;;;;;;;;;5058698;28;20033;-65
2023/03/01 01:31:38;;;;;;;26.58;11.80;;;;;;;;;;5076711;28;20036;-65
2023/03/01 01:34:05;;;;;;;20.70;10.10;;;;;;;;;;5061564;28;20035;-65
2023/03/01 01:36:32;;;;;;;19.70;11.73;;;;;;;;;;5052464;28;20471;-65
2023/03/01 01:38:58;;;;;;;10.32;7.53;;;;;;;;;;5064505;28;20032;-65
2023/03/01 01:41:26;;;;;;;16.20;10.20;;;;;;;;;;5070195;28;20653;-65
2023/03/01 01:44:30;;;;;;;16.50;10.45;;;;;;;;;;5078623;28;20025;-66
2023/03/01 01:47:04;;;;;;;16.70;9.73;;;;;;;;;;5036347;28;20033;-65
2023/03/01 01:49:42;;;;;;;16.75;10.27;;;;;;;;;;5038064;28;20382;-66
2023/03/01 01:52:13;;;;;;;14.15;9.50;;;;;;;;;;5040790;28;20618;-65
2023/03/01 01:54:48;;;;;;;19.00;11.07;;;;;;;;;;5038431;28;20721;-65
2023/03/01 01:57:19;;;;;;;18.52;11.15;;;;;;;;;;5040559;28;20037;-65
2023/03/01 01:59:50;;;;;;;21.13;11.55;;;;;;;;;;5025440;28;20033;-67
2023/03/01 02:02:16;;;;;;;22.45;12.02;;;;;;;;;;5043475;28;20068;-65
2023/03/01 02:04:42;;;;;;;18.95;10.98;;;;;;;;;;5035920;28;20073;-67
2023/03/01 02:07:23;;;;;;;24.45;11.35;;;;;;;;;;5024037;28;20033;-67
2023/03/01 02:09:51;;;;;;;18.50;10.45;;;;;;;;;;5027597;28;20059;-65
2023/03/01 02:12:20;;;;;;;16.58;11.00;;;;;;;;;;5024380;28;20635;-65
2023/03/01 02:14:46;;;;;;;21.73;11.75;;;;;;;;;;5025979;28;20041;-65
2023/03/01 02:17:14;;;;;;;21.45;11.05;;;;;;;;;;5049833;28;20051;-65
2023/03/01 02:19:43;;;;;;;16.73;10.75;;;;;;;;;;5057649;28;20036;-65
2023/03/01 02:22:18;;;;;;;16.25;9.50;;;;;;;;;;5062522;28;20028;-64
2023/03/01 02:25:08;;;;;;;21.00;11.57;;;;;;;;;;5065879;28;20113;-65
2023/03/01 02:28:03;;;;;;;19.42;10.60;;;;;;;;;;5056749;28;20052;-65
2023/03/01 02:30:29;;;;;;;19.45;12.63;;;;;;;;;;5080135;28;20412;-65
2023/03/01 02:33:04;;;;;;;21.00;11.13;;;;;;;;;;5080210;28;20024;-65
2023/03/01 02:35:39;;;;;;;20.02;12.50;;;;;;;;;;5065910;28;20034;-65
2023/03/01 02:38:08;;;;;;;17.13;11.30;;;;;;;;;;5064716;28;20051;-65
2023/03/01 02:40:35;;;;;;;19.00;9.10;;;;;;;;;;5079940;28;20032;-65
2023/03/01 02:43:06;;;;;;;20.80;12.23;;;;;;;;;;5088743;28;20044;-67
2023/03/01 02:45:31;;;;;;;17.05;10.98;;;;;;;;;;5087559;28;20043;-66
2023/03/01 02:47:57;;;;;;;22.48;11.50;;;;;;;;;;5067004;28;20071;-65
2023/03/01 02:50:29;;;;;;;20.20;11.82;;;;;;;;;;5067026;28;20032;-67
2023/03/01 02:53:19;;;;;;;26.35;11.65;;;;;;;;;;5065738;28;20444;-67
2023/03/01 02:55:45;;;;;;;23.00;11.40;;;;;;;;;;5086826;28;20089;-65
2023/03/01 02:58:11;;;;;;;16.88;11.38;;;;;;;;;;5068565;28;20044;-66
2023/03/01 03:00:43;;;;;;;23.33;10.82;;;;;;;;;;5071916;28;20032;-66
2023/03/01 03:03:12;;;;;;;20.30;11.23;;;;;;;;;;5089936;28;20043;-65
2023/03/01 03:05:38;;;;;;;11.25;8.05;;;;;;;;;;5081797;28;20064;-65
2023/03/01 03:08:04;;;;;;;19.30;11.40;;;;;;;;;;5081188;28;20071;-67
2023/03/01 03:10:39;;;;;;;22.80;12.63;;;;;;;;;;5048725;28;20382;-66
2023/03/01 03:13:13;;;;;;;19.70;12.52;;;;;;;;;;5069763;28;20115;-66
2023/03/01 03:15:40;;;;;;;18.65;10.68;;;;;;;;;;5056096;28;20047;-66
2023/03/01 03:18:10;;;;;;;22.48;12.20;;;;;;;;;;5083197;28;20040;-67
2023/03/01 03:20:37;;;;;;;19.52;11.55;;;;;;;;;;5082373;28;20078;-67
2023/03/01 03:23:03;;;;;;;23.48;11.63;;;;;;;;;;5083982;28;20032;-66
2023/03/01 03:25:29;;;;;;;21.23;12.50;;;;;;;;;;5084603;28;20061;-67
2023/03/01 03:27:58;;;;;;;17.23;11.45;;;;;;;;;;5080399;28;20040;-67
2023/03/01 03:30:29;;;;;;;18.73;10.20;;;;;;;;;;5071603;28;20033;-67
2023/03/01 03:32:56;;;;;;;20.23;11.90;;;;;;;;;;5080819;28;20020;-67
2023/03/01 03:35:33;;;;;;;20.95;12.73;;;;;;;;;;5083341;28;20039;-67
2023/03/01 03:38:01;;;;;;;21.60;12.25;;;;;;;;;;5072841;28;20690;-67
2023/03/01 03:40:30;;;;;;;22.27;12.77;;;;;;;;;;5079889;28;20043;-67
2023/03/01 03:42:55;;;;;;;22.10;11.82;;;;;;;;;;5079792;28;20060;-67
2023/03/01 03:45:21;;;;;;;23.60;12.48;;;;;;;;;;5063588;28;20063;-68
2023/03/01 03:47:47;;;;;;;20.15;11.48;;;;;;;;;;5076368;28;20097;-67
2023/03/01 03:50:15;;;;;;;24.02;12.68;;;;;;;;;;5086604;28;20116;-67
2023/03/01 03:52:40;;;;;;;20.45;12.18;;;;;;;;;;5077466;28;20122;-67
2023/03/01 03:55:10;;;;;;;20.35;11.52;;;;;;;;;;5082746;28;20107;-66
2023/03/01 03:57:37;;;;;;;23.92;13.02;;;;;;;;;;5083984;28;20074;-67
2023/03/01 04:00:05;;;;;;;23.52;12.23;;;;;;;;;;5079002;28;20032;-67
2023/03/01 04:02:41;;;;;;;18.42;11.07;;;;;;;;;;5079073;28;20044;-67
2023/03/01 04:05:08;;;;;;;14.25;9.07;;;;;;;;;;5082971;28;20074;-67
2023/03/01 04:07:38;;;;;;;20.10;11.93;;;;;;;;;;5081440;28;20043;-66
2023/03/01 04:10:08;;;;;;;;;;;;;;;;;;5066777;28;20459;-66
2023/03/01 04:12:34;;;;;;;21.60;11.55;;;;;;;;;;5081601;28;20487;-67
2023/03/01 04:15:01;;;;;;;20.45;12.45;;;;;;;;;;5083545;28;20027;-65
2023/03/01 04:17:27;;;;;;;23.48;13.27;;;;;;;;;;5077757;28;20062;-66
2023/03/01 04:19:52;;;;;;;21.75;12.02;;;;;;;;;;5079276;28;20028;-66
2023/03/01 04:22:18;;;;;;;17.55;11.43;;;;;;;;;;5076846;28;20067;-66
2023/03/01 04:24:44;;;;;;;16.90;11.52;;;;;;;;;;5074805;28;20043;-66
2023/03/01 04:27:12;;;;;;;21.08;11.65;;;;;;;;;;5083495;28;20033;-65
2023/03/01 04:29:37;;;;;;;21.80;13.57;;;;;;;;;;5068464;28;20649;-67
2023/03/01 04:32:03;;;;;;;19.55;11.70;;;;;;;;;;5083688;28;20023;-66
2023/03/01 04:34:29;;;;;;;22.52;12.30;;;;;;;;;;5084215;28;20106;-66
2023/03/01 04:36:55;;;;;;;20.40;12.05;;;;;;;;;;5068665;28;20078;-66
2023/03/01 04:39:21;;;;;;;23.27;13.00;;;;;;;;;;5080248;28;20040;-66
2023/03/01 04:41:46;;;;;;;26.02;13.77;;;;;;;;;;5080374;28;21406;-66
2023/03/01 04:44:12;;;;;;;23.92;13.25;;;;;;;;;;5072735;28;20028;-66
2023/03/01 04:46:38;;;;;;;25.17;13.88;;;;;;;;;;5070066;28;20062;-66
2023/03/01 04:49:04;;;;;;;19.92;12.73;;;;;;;;;;5077117;28;20028;-66
2023/03/01 04:51:32;;;;;;;21.10;12.63;;;;;;;;;;5083506;28;20388;-66
2023/03/01 04:53:58;;;;;;;26.10;14.02;;;;;;;;;;5079728;28;20440;-66
2023/03/01 04:56:24;;;;;;;23.05;12.23;;;;;;;;;;5082535;28;20043;-66
2023/03/01 04:58:49;;;;;;;21.27;12.57;;;;;;;;;;5079286;28;20044;-66
2023/03/01 05:01:19;;;;;;;20.58;12.90;;;;;;;;;;5085169;28;20097;-66
2023/03/01 05:03:47;;;;;;;24.50;13.37;;;;;;;;;;5094955;28;20050;-66
2023/03/01 05:06:13;;;;;;;24.02;13.35;;;;;;;;;;5094976;28;21380;-67
2023/03/01 05:08:40;;;;;;;22.50;12.73;;;;;;;;;;5091782;28;20553;-67
2023/03/01 05:11:08;;;;;;;20.50;12.93;;;;;;;;;;5084920;28;20028;-66
2023/03/01 05:13:36;;;;;;;17.83;11.77;;;;;;;;;;5078235;28;20031;-66
2023/03/01 05:16:03;;;;;;;20.63;11.68;;;;;;;;;;5075390;28;20037;-66
2023/03/01 05:18:31;;;;;;;22.00;12.85;;;;;;;;;;5084672;28;20036;-66
2023/03/01 05:21:06;;;;;;;22.38;13.48;;;;;;;;;;5083330;28;20080;-66
2023/03/01 05:23:33;;;;;;;27.05;14.25;;;;;;;;;;5062338;28;20623;-66
2023/03/01 05:25:59;;;;;;;23.98;12.93;;;;;;;;;;5085952;28;20080;-66
2023/03/01 05:28:26;;;;;;;23.25;13.02;;;;;;;;;;5078853;28;20059;-66
2023/03/01 05:30:51;;;;;;;21.95;13.65;;;;;;;;;;5074630;28;20027;-66
2023/03/01 05:33:18;;;;;;;21.83;13.05;;;;;;;;;;5084767;28;20055;-65
2023/03/01 05:35:44;;;;;;;22.15;13.27;;;;;;;;;;5082636;28;20047;-66
2023/03/01 05:38:14;;;;;;;20.27;12.68;;;;;;;;;;5082369;28;20031;-66
2023/03/01 05:40:44;;;;;;;26.35;14.02;;;;;;;;;;5083201;28;20039;-65
2023/03/01 05:43:11;;;;;;;87.30;42.50;;;;;;;;;;5080551;28;20032;-65
2023/03/01 05:45:38;;;;;;;25.45;14.50;;;;;;;;;;5082228;28;20042;-65
2023/03/01 05:48:05;;;;;;;25.88;14.88;;;;;;;;;;5059891;28;20035;-65
2023/03/01 05:50:37;;;;;;;23.70;12.55;;;;;;;;;;5089832;28;20040;-66
2023/03/01 05:53:08;;;;;;;24.52;13.85;;;;;;;;;;5079652;28;20040;-66
2023/03/01 05:55:35;;;;;;;26.05;15.05;;;;;;;;;;5077305;28;20054;-66
2023/03/01 05:58:03;;;;;;;23.67;13.23;;;;;;;;;;5078022;28;20047;-66
2023/03/01 06:00:30;;;;;;;25.00;14.48;;;;;;;;;;5083664;28;20115;-66
2023/03/01 06:02:57;;;;;;;23.65;13.75;;;;;;;;;;5081095;28;20044;-66
2023/03/01 06:05:23;;;;;;;27.83;13.95;;;;;;;;;;5080081;28;20036;-65
2023/03/01 06:07:49;;;;;;;23.15;14.10;;;;;;;;;;5081466;28;20055;-66
2023/03/01 06:10:16;;;;;;;25.75;13.65;;;;;;;;;;5068204;28;20476;-66
2023/03/01 06:12:43;;;;;;;25.60;12.30;;;;;;;;;;5083634;28;20082;-66
2023/03/01 06:15:10;;;;;;;20.50;12.73;;;;;;;;;;5075443;28;20153;-66
2023/03/01 06:17:38;;;;;;;22.15;12.70;;;;;;;;;;5084778;28;20475;-66
2023/03/01 06:20:10;;;;;;;26.60;13.48;;;;;;;;;;5086753;28;20518;-66
2023/03/01 06:22:36;;;;;;;22.25;12.75;;;;;;;;;;5081934;28;20602;-66
2023/03/01 06:25:02;;;;;;;21.42;13.50;;;;;;;;;;5086962;28;20028;-66
2023/03/01 06:27:27;;;;;;;22.27;12.93;;;;;;;;;;5086107;28;20032;-65
2023/03/01 06:29:53;;;;;;;20.67;12.55;;;;;;;;;;5085742;28;20039;-65
2023/03/01 06:32:19;;;;;;;23.48;13.43;;;;;;;;;;5086490;28;20467;-66
2023/03/01 06:34:45;;;;;;;79.03;52.53;;;;;;;;;;5083576;28;20060;-66
2023/03/01 06:37:10;;;;;;;33.63;17.60;;;;;;;;;;5078461;28;20031;-66
2023/03/01 06:39:36;;;;;;;26.70;13.02;;;;;;;;;;5087091;28;20047;-66
2023/03/01 06:42:01;;;;;;;22.75;13.30;;;;;;;;;;5085417;28;20038;-66
2023/03/01 06:44:27;;;;;;;22.77;13.02;;;;;;;;;;5077602;28;20032;-66
2023/03/01 06:46:53;;;;;;;22.15;13.77;;;;;;;;;;5088546;28;20544;-66
2023/03/01 06:49:19;;;;;;;26.65;13.98;;;;;;;;;;5082873;28;20066;-66
2023/03/01 06:51:46;;;;;;;25.45;14.75;;;;;;;;;;5086638;28;20036;-66
2023/03/01 06:54:12;;;;;;;26.75;13.88;;;;;;;;;;5091285;28;20063;-66
2023/03/01 06:56:38;;;;;;;21.15;12.73;;;;;;;;;;5085669;28;20109;-66
2023/03/01 06:59:03;;;;;;;25.90;12.95;;;;;;;;;;5086678;28;20475;-66
2023/03/01 07:01:30;;;;;;;22.75;13.63;;;;;;;;;;5089164;28;20058;-65
2023/03/01 07:03:55;;;;;;;27.42;14.25;;;;;;;;;;5088844;28;20031;-66
2023/03/01 07:06:22;;;;;;;21.65;12.70;;;;;;;;;;5086771;28;20677;-66
2023/03/01 07:08:48;;;;;;;24.58;14.20;;;;;;;;;;5087378;28;20059;-66
2023/03/01 07:11:14;;;;;;;23.17;14.55;;;;;;;;;;5089601;28;20067;-66
2023/03/01 07:13:39;;;;;;;25.67;14.63;;;;;;;;;;5086949;28;20521;-66
2023/03/01 07:16:05;;;;;;;23.80;14.02;;;;;;;;;;5084217;28;20058;-66
2023/03/01 07:18:31;;;;;;;26.73;14.75;;;;;;;;;;5082799;28;20496;-65
2023/03/01 07:20:56;;;;;;;24.15;15.10;;;;;;;;;;5086190;28;20060;-65
2023/03/01 07:23:22;;;;;;;24.42;14.40;;;;;;;;;;5086921;28;20437;-66
2023/03/01 07:25:54;;;;;;;22.73;14.23;;;;;;;;;;5086312;28;20098;-66
2023/03/01 07:28:22;;;;;;;25.05;13.85;;;;;;;;;;5064448;28;20036;-66
2023/03/01 07:30:48;;;;;;;28.83;15.40;;;;;;;;;;5083897;28;20036;-65
2023/03/01 07:33:13;;;;;;;26.67;14.05;;;;;;;;;;5083226;28;20502;-65
2023/03/01 07:35:39;;;;;;;31.75;15.48;;;;;;;;;;5089091;28;20043;-65
2023/03/01 07:38:04;;;;;;;23.20;14.00;;;;;;;;;;5097613;28;20039;-66
2023/03/01 07:40:30;;;;;;;23.35;14.35;;;;;;;;;;5098177;28;20110;-65
2023/03/01 07:42:58;;;;;;;22.40;12.25;;;;;;;;;;5087830;28;20040;-65
2023/03/01 07:45:25;;;;;;;24.75;14.50;;;;;;;;;;5083848;28;20641;-65
2023/03/01 07:47:52;;;;;;;22.45;11.90;;;;;;;;;;5084741;28;20038;-65
2023/03/01 07:50:18;;;;;;;19.88;11.70;;;;;;;;;;5082660;28;20432;-65
2023/03/01 07:52:48;;;;;;;23.23;13.70;;;;;;;;;;5068766;28;20024;-66
2023/03/01 07:55:15;;;;;;;21.58;12.43;;;;;;;;;;5065070;28;20407;-65
2023/03/01 07:57:40;;;;;;;23.25;13.85;;;;;;;;;;5084600;28;20134;-66
2023/03/01 08:00:07;;;;;;;20.90;13.63;;;;;;;;;;5089349;28;20115;-65
2023/03/01 08:02:37;;;;;;;22.63;13.93;;;;;;;;;;5085512;28;20609;-66
2023/03/01 08:05:03;;;;;;;21.45;13.77;;;;;;;;;;5089555;28;20118;-66
2023/03/01 08:07:29;;;;;;;22.27;13.50;;;;;;;;;;5079502;28;20101;-66
2023/03/01 08:09:55;;;;;;;21.38;13.93;;;;;;;;;;5082022;28;20070;-66
2023/03/01 08:12:20;;;;;;;23.30;14.43;;;;;;;;;;5086536;28;20100;-66
2023/03/01 08:14:46;;;;;;;20.52;13.95;;;;;;;;;;5085308;28;20028;-66
2023/03/01 08:17:14;;;;;;;22.38;14.07;;;;;;;;;;5084163;28;20519;-65
2023/03/01 08:19:39;;;;;;;18.42;13.65;;;;;;;;;;5084101;28;20376;-66
2023/03/01 08:22:05;;;;;;;23.25;14.48;;;;;;;;;;5087776;28;20043;-66
2023/03/01 08:24:30;;;;;;;22.38;13.93;;;;;;;;;;5089290;28;20086;-66
2023/03/01 08:26:56;;;;;;;17.92;13.82;;;;;;;;;;5083848;28;20063;-66
2023/03/01 08:29:24;;;;;;;19.55;14.45;;;;;;;;;;5081367;28;20039;-66
2023/03/01 08:31:50;;;;;;;16.98;11.93;;;;;;;;;;5086489;28;20403;-66
2023/03/01 08:34:18;;;;;;;21.42;14.80;;;;;;;;;;5084991;28;20089;-66
2023/03/01 08:36:45;;;;;;;22.58;14.95;;;;;;;;;;5083279;28;20040;-66
2023/03/01 08:39:14;;;;;;;21.90;14.90;;;;;;;;;;5084951;28;20129;-66
2023/03/01 08:41:40;;;;;;;22.17;15.57;;;;;;;;;;5082198;28;20036;-66
2023/03/01 08:44:06;;;;;;;21.48;15.25;;;;;;;;;;5079508;28;20289;-66
2023/03/01 08:46:38;;;;;;;16.48;11.48;;;;;;;;;;5081788;28;20115;-66
2023/03/01 08:49:05;;;;;;;19.77;13.43;;;;;;;;;;5083960;28;20499;-67
2023/03/01 08:51:36;;;;;;;26.38;15.70;;;;;;;;;;5083003;28;20060;-66
2023/03/01 08:54:21;;;;;;;23.08;15.27;;;;;;;;;;5081684;28;20044;-67
2023/03/01 08:56:48;;;;;;;22.42;13.95;;;;;;;;;;5085420;28;20041;-66
2023/03/01 08:59:15;;;;;;;20.23;14.15;;;;;;;;;;5060122;28;20036;-66
2023/03/01 09:01:44;;;;;;;24.70;15.68;;;;;;;;;;5085190;28;20036;-67
2023/03/01 09:04:11;;;;;;;19.23;14.07;;;;;;;;;;5066124;28;20495;-66
2023/03/01 09:06:37;;;;;;;19.30;13.48;;;;;;;;;;5087874;28;20067;-67
2023/03/01 09:09:04;;;;;;;18.58;13.30;;;;;;;;;;5087685;28;20090;-66
2023/03/01 09:11:30;;;;;;;20.88;13.65;;;;;;;;;;5077936;28;20389;-66
2023/03/01 09:13:56;;;;;;;23.67;16.15;;;;;;;;;;5080842;28;20027;-66
2023/03/01 09:16:22;;;;;;;22.55;14.90;;;;;;;;;;5086136;28;20044;-67
2023/03/01 09:18:50;;;;;;;23.15;15.48;;;;;;;;;;5081517;28;20461;-68
2023/03/01 09:21:17;;;;;;;19.10;13.93;;;;;;;;;;5083553;28;20036;-68
2023/03/01 09:23:44;;;;;;;18.95;14.88;;;;;;;;;;5085168;28;20059;-68
2023/03/01 09:26:22;;;;;;;22.13;15.35;;;;;;;;;;5065244;28;20032;-68
2023/03/01 09:28:49;;;;;;;17.13;13.25;;;;;;;;;;5080841;28;20503;-68
2023/03/01 09:31:17;;;;;;;23.77;15.65;;;;;;;;;;5086882;28;20101;-68
2023/03/01 09:33:45;;;;;;;24.65;16.77;;;;;;;;;;5087301;28;20088;-68
2023/03/01 09:36:18;;;;;;;50.45;25.58;;;;;;;;;;5085151;28;20452;-68
2023/03/01 09:38:45;;;;;;;22.20;16.27;;;;;;;;;;5085120;28;20050;-67
2023/03/01 09:41:17;;;;;;;20.13;13.65;;;;;;;;;;5096621;28;20039;-68
2023/03/01 09:43:59;;;;;;;15.70;12.05;;;;;;;;;;5111032;28;20230;-68
2023/03/01 09:46:26;;;;;;;20.58;13.80;;;;;;;;;;5095448;28;20031;-67
2023/03/01 09:48:59;;;;;;;19.42;13.50;;;;;;;;;;5077223;28;20509;-67
2023/03/01 09:51:30;;;;;;;20.15;13.52;;;;;;;;;;5077979;28;20032;-68
2023/03/01 09:53:56;;;;;;;21.00;15.70;;;;;;;;;;5082268;28;20036;-67
2023/03/01 09:56:57;;;;;;;20.42;14.23;;;;;;;;;;5086050;28;20271;-68
2023/03/01 09:59:25;;;;;;;20.13;14.85;;;;;;;;;;5078048;28;20257;-67
2023/03/01 10:02:26;;;;;;;21.27;14.88;;;;;;;;;;5084151;28;20497;-68
2023/03/01 10:04:56;;;;;;;18.58;14.18;;;;;;;;;;5079628;28;20035;-68
2023/03/01 10:07:32;;;;;;;20.15;14.13;;;;;;;;;;5082750;28;20036;-67
2023/03/01 10:10:00;;;;;;;22.35;14.98;;;;;;;;;;5080468;28;20036;-67
2023/03/01 10:12:39;;;;;;;22.95;15.23;;;;;;;;;;5063361;28;20032;-68
2023/03/01 10:15:12;;;;;;;20.75;14.57;;;;;;;;;;5083301;28;20115;-67
2023/03/01 10:17:57;;;;;;;22.33;15.20;;;;;;;;;;5081662;28;20028;-68
2023/03/01 10:20:25;;;;;;;19.17;15.00;;;;;;;;;;5083725;28;20064;-67
2023/03/01 10:22:52;;;;;;;25.48;14.60;;;;;;;;;;5084030;28;20064;-67
2023/03/01 10:25:44;;;;;;;21.52;13.35;;;;;;;;;;5079495;28;20093;-67
2023/03/01 10:28:19;;;;;;;20.85;14.43;;;;;;;;;;5073618;28;20250;-68
2023/03/01 10:30:46;;;;;;;20.58;14.23;;;;;;;;;;5067812;28;20036;-67
2023/03/01 10:33:23;;;;;;;18.10;13.77;;;;;;;;;;5080710;28;20046;-67
2023/03/01 10:35:49;;;;;;;29.08;24.23;;;;;;;;;;5086141;28;20036;-67
2023/03/01 10:38:16;;;;;;;21.52;15.55;;;;;;;;;;5083962;28;20038;-67
2023/03/01 10:40:54;;;;;;;23.10;15.10;;;;;;;;;;5085029;28;20087;-67
2023/03/01 10:43:21;;;;;;;22.10;15.90;;;;;;;;;;5084942;28;20038;-67
2023/03/01 10:45:47;;;;;;;20.75;14.50;;;;;;;;;;5079907;28;20044;-67
2023/03/01 10:48:13;;;;;;;19.20;13.23;;;;;;;;;;5081085;28;20074;-67
2023/03/01 10:50:44;;;;;;;17.70;14.50;;;;;;;;;;5073305;28;20483;-67
2023/03/01 10:53:21;;;;;;;17.77;13.80;;;;;;;;;;5070062;28;20426;-67
2023/03/01 10:55:56;;;;;;;22.98;13.95;;;;;;;;;;5077802;28;20067;-68
2023/03/01 10:58:22;;;;;;;20.15;13.68;;;;;;;;;;5079619;28;20095;-68
2023/03/01 11:00:53;;;;;;;20.30;14.43;;;;;;;;;;5073856;28;20035;-67
2023/03/01 11:03:29;;;;;;;20.15;14.43;;;;;;;;;;5081369;28;20031;-67
2023/03/01 11:05:59;;;;;;;19.10;14.15;;;;;;;;;;5079257;28;20071;-68
2023/03/01 11:08:38;;;;;;;20.08;14.57;;;;;;;;;;5084660;28;20031;-68
2023/03/01 11:11:06;;;;;;;;;;;;;;;;;;5085764;28;20401;-67
2023/03/01 11:13:31;;;;;;;21.20;13.68;;;;;;;;;;5065615;28;19927;-67
2023/03/01 11:16:07;;;;;;;22.65;14.43;;;;;;;;;;5084634;28;20414;-67
2023/03/01 11:18:33;;;;;;;16.83;12.65;;;;;;;;;;5085302;28;20058;-67
2023/03/01 11:21:01;;;;;;;20.58;13.85;;;;;;;;;;5075195;28;20036;-67
2023/03/01 11:23:29;;;;;;;17.52;13.60;;;;;;;;;;5068148;28;20666;-66
2023/03/01 11:26:05;;;;;;;19.38;12.85;;;;;;;;;;5082585;28;20437;-67
2023/03/01 11:28:30;;;;;;;12.68;9.38;;;;;;;;;;5081902;28;20395;-67
2023/03/01 11:31:02;;;;;;;18.02;14.23;;;;;;;;;;5085336;28;20032;-67
2023/03/01 11:33:33;;;;;;;19.40;13.70;;;;;;;;;;5089130;28;20066;-67
2023/03/01 11:36:07;;;;;;;19.45;14.40;;;;;;;;;;5080332;28;20450;-68
2023/03/01 11:38:36;;;;;;;23.35;14.90;;;;;;;;;;5079406;28;20509;-68
2023/03/01 11:41:08;;;;;;;26.38;14.98;;;;;;;;;;5090831;28;20032;-68
2023/03/01 11:43:41;;;;;;;22.38;15.02;;;;;;;;;;5087130;28;20044;-67
2023/03/01 11:46:37;;;;;;;17.17;13.48;;;;;;;;;;5088903;28;20040;-67
2023/03/01 11:49:12;;;;;;;19.75;14.10;;;;;;;;;;5083020;28;20064;-68
2023/03/01 11:51:51;;;;;;;19.35;14.52;;;;;;;;;;5087673;28;20040;-67
2023/03/01 11:54:53;;;;;;;19.73;14.38;;;;;;;;;;5083941;28;20407;-68
2023/03/01 11:57:50;;;;;;;20.27;15.15;;;;;;;;;;5084808;28;20043;-67
2023/03/01 12:00:44;;;;;;;15.90;13.38;;;;;;;;;;5086171;28;20383;-67
2023/03/01 12:03:27;;;;;;;19.50;14.25;;;;;;;;;;4975740;28;20051;-67
2023/03/01 12:06:23;;;;;;;17.95;12.88;;;;;;;;;;4981865;28;20049;-68
2023/03/01 12:09:19;;;;;;;17.95;13.98;;;;;;;;;;4981508;28;20046;-68
2023/03/01 12:12:23;;;;;;;17.70;14.15;;;;;;;;;;4981099;28;20030;-68
2023/03/01 12:15:27;;;;;;;19.58;14.85;;;;;;;;;;4983079;28;20038;-67
2023/03/01 12:18:20;;;;;;;17.75;14.38;;;;;;;;;;4980856;28;20049;-68
2023/03/01 12:20:48;;;;;;;20.85;14.50;;;;;;;;;;4978346;28;20422;-67
2023/03/01 12:23:23;;;;;;;16.07;13.70;;;;;;;;;;4974119;28;20137;-68
2023/03/01 12:26:18;;;;;;;20.35;14.63;;;;;;;;;;4982890;28;20125;-68
2023/03/01 12:29:11;;;;;;;16.50;13.52;;;;;;;;;;4956323;28;20049;-68
2023/03/01 12:32:19;;;;;;;18.33;14.45;;;;;;;;;;4982173;28;20157;-68
2023/03/01 12:35:12;;;;;;;17.83;13.82;;;;;;;;;;4983232;28;20073;-67
2023/03/01 12:38:01;;;;;;;19.95;14.23;;;;;;;;;;4979541;28;20138;-67
2023/03/01 12:40:26;;;;;;;18.70;14.75;;;;;;;;;;5050452;28;20093;-68
2023/03/01 12:43:46;;;;;;;19.85;15.20;;;;;;;;;;5083244;28;20040;-67
2023/03/01 12:46:25;;;;;;;18.08;14.55;;;;;;;;;;5034890;28;20063;-68
2023/03/01 12:49:12;;;;;;;20.67;14.80;;;;;;;;;;5027053;28;20196;-70
2023/03/01 12:51:39;;;;;;;18.38;13.48;;;;;;;;;;5026396;28;20112;-67
2023/03/01 12:54:35;;;;;;;20.58;15.50;;;;;;;;;;5036670;28;20041;-67
2023/03/01 12:57:12;;;;;;;20.95;15.90;;;;;;;;;;5025858;28;20044;-68
2023/03/01 13:00:07;;;;;;;20.92;13.93;;;;;;;;;;5024949;28;20229;-67
2023/03/01 13:02:44;;;;;;;22.02;15.00;;;;;;;;;;5030459;28;20059;-67
2023/03/01 13:05:34;;;;;;;19.80;14.93;;;;;;;;;;5024758;28;20048;-67
2023/03/01 13:08:36;;;;;;;16.88;14.52;;;;;;;;;;5022880;28;20037;-67
2023/03/01 13:11:04;;;;;;;19.13;14.65;;;;;;;;;;5003158;28;20037;-67
2023/03/01 13:13:30;;;;;;;21.70;14.73;;;;;;;;;;5021818;28;20092;-67
2023/03/01 13:15:57;;;;;;;20.20;14.50;;;;;;;;;;5022627;28;20037;-67
2023/03/01 13:18:24;;;;;;;17.27;13.75;;;;;;;;;;5022499;28;20128;-66
2023/03/01 13:20:51;;;;;;;18.17;13.93;;;;;;;;;;5076256;28;20040;-67
2023/03/01 13:23:20;;;;;;;21.48;15.18;;;;;;;;;;5079314;28;20034;-67
2023/03/01 13:25:58;;;;;;;21.98;15.50;;;;;;;;;;5083474;28;20039;-67
2023/03/01 13:28:48;;;;;;;19.65;13.43;;;;;;;;;;5085508;28;20328;-66
2023/03/01 13:31:16;;;;;;;22.23;14.95;;;;;;;;;;5067869;28;20418;-67
2023/03/01 13:33:53;;;;;;;17.02;12.68;;;;;;;;;;5078354;28;21010;-67
2023/03/01 13:36:28;;;;;;;17.33;13.20;;;;;;;;;;5077193;28;20036;-67
2023/03/01 13:38:58;;;;;;;17.67;13.88;;;;;;;;;;5082640;28;20153;-67
2023/03/01 13:41:39;;;;;;;16.00;12.60;;;;;;;;;;5076052;28;20032;-67
2023/03/01 13:44:26;;;;;;;17.27;13.65;;;;;;;;;;5078495;28;20124;-67
2023/03/01 13:46:56;;;;;;;22.15;12.30;;;;;;;;;;5070933;28;20056;-67
2023/03/01 13:49:26;;;;;;;21.05;13.25;;;;;;;;;;5077715;28;20032;-67
2023/03/01 13:51:52;;;;;;;17.98;13.38;;;;;;;;;;5079169;28;20437;-67
2023/03/01 13:54:31;;;;;;;19.30;13.57;;;;;;;;;;5082377;28;20044;-67
2023/03/01 13:57:01;;;;;;;;;;;;;;;;;;5078561;28;20063;-67
2023/03/01 13:59:27;;;;;;;14.88;11.98;;;;;;;;;;5069353;28;20157;-67
2023/03/01 14:01:58;;;;;;;18.48;12.80;;;;;;;;;;5074591;28;20114;-68
2023/03/01 14:04:40;;;;;;;17.33;12.98;;;;;;;;;;5081871;28;20032;-67
2023/03/01 14:07:25;;;;;;;16.73;12.80;;;;;;;;;;5079803;28;20058;-67
2023/03/01 14:09:54;;;;;;;15.73;12.63;;;;;;;;;;5085013;28;20085;-67
2023/03/01 14:12:41;;;;;;;15.20;13.25;;;;;;;;;;5085321;28;20032;-67
2023/03/01 14:15:19;;;;;;;14.35;12.63;;;;;;;;;;5081208;28;20028;-67
2023/03/01 14:17:51;;;;;;;15.88;12.95;;;;;;;;;;5081813;28;20399;-67
2023/03/01 14:20:19;;;;;;;16.02;12.00;;;;;;;;;;5100161;28;20035;-67
2023/03/01 14:22:46;;;;;;;17.67;12.85;;;;;;;;;;5097021;28;20036;-67
2023/03/01 14:25:14;;;;;;;17.00;13.27;;;;;;;;;;5086483;28;20036;-67
2023/03/01 14:27:42;;;;;;;16.02;12.65;;;;;;;;;;5082547;28;20050;-67
2023/03/01 14:30:40;;;;;;;19.55;12.90;;;;;;;;;;5084287;28;20530;-67
2023/03/01 14:33:19;;;;;;;18.85;13.52;;;;;;;;;;5068781;28;20044;-67
2023/03/01 14:35:53;;;;;;;19.98;11.90;;;;;;;;;;5077054;28;20071;-67
2023/03/01 14:38:27;;;;;;;17.73;12.10;;;;;;;;;;5080612;28;20032;-67
2023/03/01 14:40:58;;;;;;;17.52;12.90;;;;;;;;;;5067131;28;20115;-67
2023/03/01 14:43:25;;;;;;;16.73;12.45;;;;;;;;;;5080237;28;20032;-67